Flight Number: EUR1091 Duration: 1:30
Departure: Gatwick Airport (EGKK) at 06:30 Distance: 510 Nm
Arrival: Milano Linate (LIML) at 08:00 Equipment: MD-81

Weather Information
London / Gatwick Airport, United Kingdom (EGKK) 51-09N 000-11W 0M Nov 19, 2017 - 10:20 PM EST / 2017.11.20 0320 UTC
Wind: from the NNE (030 degrees) at 1 MPH (1 KT):0
Visibility: greater than 7 mile(s):0
Sky conditions: mostly cloudy Temperature: 39 F (4 C) Dew Point: 37 F (3 C) Relative Humidity: 93% Pressure (altimeter): 30.09 in. Hg (1019 hPa)
ob: EGKK 200320Z 03001KT 9999 BKN022 04/03 Q1019 cycle: 3
Sunrise: 07:31 Sunset: 16:01 (UTC)

Milano / Linate, Italy (LIML) 45-26N 009-17E 103M Nov 19, 2017 - 10:20 PM EST / 2017.11.20 0320 UTC
Wind: Variable at 1 MPH (1 KT):0
Visibility: greater than 7 mile(s):0 Temperature: 37 F (3 C) Dew Point: 35 F (2 C) Relative Humidity: 93% Pressure (altimeter): 30.06 in. Hg (1018 hPa)
ob: LIML 200320Z VRB01KT CAVOK 03/02 Q1018 NOSIG cycle: 3
Sunrise: 06:33 Sunset: 15:44 (UTC)

TAF:2017/11/19 18:21 TAF LIML 191700Z 1918/2018 VRB05KT 7000 NSC BECMG 1922/1924 2000 BCFG TEMPO 2000/2007 0500 FG BECMG 2007/2010 6000

Previous Pireps for this route
Date Aircraft Flight time Fuel used Landing rate On time
2012-10-14A32101.5910565-182Yes
2012-11-01A32101.5010054-444Yes
2012-12-14A32101.389834-269Yes
2013-02-26A3211.4292980No
2013-06-09A32101.4031602-242No
2013-06-20B7372.10151000Charter
2013-07-02B7771.45281720Charter
2013-10-22MD-813.09180060No
2014-06-08B73701.408917-131Charter
2014-10-07A32101.278723-182Yes
2014-10-26MD-8101.4011350-132No
2015-04-01A32101.3710208-247No
2015-05-25A32101.399647-326Yes
2015-12-02A32102.1913638-64Yes
2016-08-26A32101.5210008-140Yes
2016-10-16MD-811.38125380No
(pireps marked green are flown by you)

Route map